createdAt,value
2023-02-28T00:01:14.462Z,100976.72
2023-02-28T00:03:41.117Z,100970.47
2023-02-28T00:06:10.602Z,100964.25
2023-02-28T00:08:38.665Z,100970.31
2023-02-28T00:11:08.034Z,100981.75
2023-02-28T00:16:21.293Z,100978.34
2023-02-28T00:18:48.784Z,100988.47
2023-02-28T00:27:25.804Z,100990.00
2023-02-28T00:29:52.405Z,100988.12
2023-02-28T00:32:19.961Z,100995.19
2023-02-28T00:34:46.900Z,101001.00
2023-02-28T00:37:13.759Z,100996.50
2023-02-28T00:39:40.809Z,100990.22
2023-02-28T00:45:05.553Z,100997.72
2023-02-28T00:47:33.102Z,101002.91
2023-02-28T00:50:01.358Z,101002.69
2023-02-28T00:52:36.720Z,101001.22
2023-02-28T00:55:40.526Z,101006.81
2023-02-28T00:58:06.933Z,101008.03
2023-02-28T01:00:33.482Z,101007.22
2023-02-28T01:03:00.033Z,101003.88
2023-02-28T01:05:26.610Z,101000.00
2023-02-28T01:07:53.174Z,101000.78
2023-02-28T01:10:21.812Z,101001.81
2023-02-28T01:15:23.814Z,100996.81
2023-02-28T01:17:50.398Z,101002.16
2023-02-28T01:20:17.128Z,101000.75
2023-02-28T01:22:43.656Z,100998.03
2023-02-28T01:25:10.324Z,101002.19
2023-02-28T01:28:34.519Z,101000.50
2023-02-28T01:31:41.994Z,100999.84
2023-02-28T01:34:08.596Z,101003.78
2023-02-28T01:36:35.171Z,100998.38
2023-02-28T01:39:01.721Z,101006.50
2023-02-28T01:41:32.944Z,100998.56
2023-02-28T01:44:06.642Z,101001.25
2023-02-28T01:46:51.581Z,100992.13
2023-02-28T01:49:19.638Z,100996.09
2023-02-28T01:51:56.195Z,100998.19
2023-02-28T01:54:29.782Z,100996.31
2023-02-28T01:57:39.261Z,101002.06
2023-02-28T02:01:02.995Z,100996.47
2023-02-28T02:03:31.358Z,101004.78
2023-02-28T02:05:58.292Z,100992.72
2023-02-28T02:08:29.098Z,100991.91
2023-02-28T02:10:58.071Z,100988.69
2023-02-28T02:13:46.431Z,101003.41
2023-02-28T02:19:15.967Z,100993.50
2023-02-28T02:22:28.898Z,100981.56
2023-02-28T02:25:33.126Z,100987.50
2023-02-28T02:32:18.304Z,100990.16
2023-02-28T02:35:04.700Z,100996.25
2023-02-28T02:37:35.836Z,100994.56
2023-02-28T02:40:18.946Z,100996.87
2023-02-28T02:43:08.709Z,100997.72
2023-02-28T02:45:56.743Z,100993.69
2023-02-28T02:48:29.671Z,100985.63
2023-02-28T02:51:00.622Z,100992.09
2023-02-28T02:53:42.673Z,100992.28
2023-02-28T03:00:09.467Z,100991.91
2023-02-28T03:02:39.341Z,100993.03
2023-02-28T03:05:16.249Z,100992.69
2023-02-28T03:07:43.420Z,100995.84
2023-02-28T03:10:28.422Z,100994.59
2023-02-28T03:13:20.482Z,101003.53
2023-02-28T03:18:52.911Z,101001.25
2023-02-28T03:21:34.997Z,101003.22
2023-02-28T03:24:04.305Z,101003.78
2023-02-28T03:27:25.548Z,101005.56
2023-02-28T03:30:20.499Z,101007.28
2023-02-28T03:33:10.013Z,101001.88
2023-02-28T03:35:57.071Z,101003.53
2023-02-28T03:38:36.402Z,101003.94
2023-02-28T03:41:09.999Z,101006.22
2023-02-28T03:43:40.198Z,101001.03
2023-02-28T03:46:25.563Z,101002.22
2023-02-28T03:49:02.897Z,100999.97
2023-02-28T03:51:30.948Z,101020.97
2023-02-28T03:54:12.064Z,101013.69
2023-02-28T03:57:19.347Z,101009.53
2023-02-28T04:00:11.393Z,101011.03
2023-02-28T04:02:37.971Z,101005.38
2023-02-28T04:05:04.819Z,100996.47
2023-02-28T04:10:07.965Z,101002.91
2023-02-28T04:12:34.561Z,100992.28
2023-02-28T04:15:16.772Z,100996.87
2023-02-28T04:17:43.475Z,100994.50
2023-02-28T04:20:13.385Z,100990.25
2023-02-28T04:22:40.110Z,100993.56
2023-02-28T04:25:18.099Z,100991.28
2023-02-28T04:28:22.050Z,100995.97
2023-02-28T04:31:10.902Z,100999.94
2023-02-28T04:33:38.147Z,100990.84
2023-02-28T04:36:08.392Z,101001.22
2023-02-28T04:38:39.611Z,101000.41
2023-02-28T04:41:06.807Z,100990.03
2023-02-28T04:43:33.679Z,100998.72
2023-02-28T04:46:03.666Z,100997.50
2023-02-28T04:48:31.776Z,100998.31
2023-02-28T04:51:04.146Z,101000.41
2023-02-28T04:53:30.830Z,101000.63
2023-02-28T04:55:58.348Z,100990.44
2023-02-28T04:58:25.440Z,100989.63
2023-02-28T05:01:30.586Z,100994.59
2023-02-28T05:03:59.201Z,100998.16
2023-02-28T05:06:28.472Z,100990.44
2023-02-28T05:09:09.040Z,100989.41
2023-02-28T05:11:44.215Z,100990.03
2023-02-28T05:14:30.501Z,100991.47
2023-02-28T05:16:57.055Z,100993.97
2023-02-28T05:19:23.632Z,100992.75
2023-02-28T05:21:55.481Z,100995.84
2023-02-28T05:24:25.277Z,100999.16
2023-02-28T05:26:53.953Z,100991.88
2023-02-28T05:34:31.084Z,101001.62
2023-02-28T05:36:57.693Z,101003.44
2023-02-28T05:39:24.325Z,101003.09
2023-02-28T05:41:50.961Z,101005.22
2023-02-28T05:48:16.690Z,101008.84
2023-02-28T05:50:43.702Z,101007.97
2023-02-28T05:53:10.291Z,101011.06
2023-02-28T05:55:38.446Z,101020.66
2023-02-28T05:58:05.155Z,101017.00
2023-02-28T06:00:31.717Z,101021.53
2023-02-28T06:03:01.025Z,101023.75
2023-02-28T06:05:27.708Z,101025.34
2023-02-28T06:07:54.373Z,101017.41
2023-02-28T06:10:20.926Z,101022.44
2023-02-28T06:12:47.549Z,101018.78
2023-02-28T06:15:16.026Z,101023.53
2023-02-28T06:17:43.859Z,101025.75
2023-02-28T06:20:13.843Z,101011.00
2023-02-28T06:22:40.923Z,101019.38
2023-02-28T06:25:08.113Z,101025.75
2023-02-28T06:27:35.066Z,101027.94
2023-02-28T06:30:01.693Z,101024.69
2023-02-28T06:32:30.615Z,101036.81
2023-02-28T06:34:59.000Z,101038.09
2023-02-28T06:37:28.719Z,101039.88
2023-02-28T06:39:56.924Z,101039.66
2023-02-28T06:42:29.726Z,101052.69
2023-02-28T06:44:57.046Z,101047.63
2023-02-28T06:47:23.965Z,101052.19
2023-02-28T06:49:50.971Z,101048.38
2023-02-28T06:52:17.781Z,101054.22
2023-02-28T06:54:44.324Z,101047.56
2023-02-28T06:57:10.877Z,101040.87
2023-02-28T06:59:37.541Z,101045.62
2023-02-28T07:02:04.198Z,101055.88
2023-02-28T07:04:30.794Z,101049.84
2023-02-28T07:06:57.984Z,101050.31
2023-02-28T07:09:24.881Z,101058.31
2023-02-28T07:11:51.471Z,101059.91
2023-02-28T07:14:18.020Z,101060.78
2023-02-28T07:16:46.460Z,101067.06
2023-02-28T07:19:57.124Z,101071.81
2023-02-28T07:23:01.596Z,101073.22
2023-02-28T07:25:29.600Z,101068.75
2023-02-28T07:27:57.183Z,101071.81
2023-02-28T07:30:23.881Z,101068.66
2023-02-28T07:32:50.436Z,101070.28
2023-02-28T07:35:17.175Z,101082.28
2023-02-28T07:37:43.797Z,101075.94
2023-02-28T07:40:15.049Z,101073.50
2023-02-28T07:42:42.784Z,101075.38
2023-02-28T07:45:12.633Z,101087.50
2023-02-28T07:47:39.963Z,101087.22
2023-02-28T07:50:08.823Z,101087.16
2023-02-28T07:52:35.552Z,101081.78
2023-02-28T07:55:02.183Z,101088.91
2023-02-28T07:57:28.784Z,101083.97
2023-02-28T07:59:55.340Z,101083.28
2023-02-28T08:02:21.941Z,101086.41
2023-02-28T08:04:49.487Z,101083.69
2023-02-28T08:07:17.477Z,101078.81
2023-02-28T08:09:45.373Z,101079.62
2023-02-28T08:12:12.599Z,101076.50
2023-02-28T08:14:40.647Z,101083.44
2023-02-28T08:17:07.787Z,101083.28
2023-02-28T08:19:34.348Z,101080.50
2023-02-28T08:22:00.912Z,101081.63
2023-02-28T08:24:46.162Z,101082.59
2023-02-28T08:27:47.816Z,101080.78
2023-02-28T08:30:15.556Z,101082.94
2023-02-28T08:32:42.495Z,101081.63
2023-02-28T08:35:10.377Z,101079.34
2023-02-28T08:37:37.051Z,101082.53
2023-02-28T08:40:05.234Z,101081.06
2023-02-28T08:42:33.202Z,101082.19
2023-02-28T08:44:59.788Z,101071.19
2023-02-28T08:47:26.525Z,101075.59
2023-02-28T08:49:53.101Z,101076.25
2023-02-28T08:52:19.888Z,101086.41
2023-02-28T08:54:47.889Z,101084.97
2023-02-28T08:57:14.605Z,101085.19
2023-02-28T08:59:41.267Z,101077.34
2023-02-28T09:02:20.641Z,101065.03
2023-02-28T09:04:47.190Z,101080.75
2023-02-28T09:07:13.963Z,101081.22
2023-02-28T09:09:54.559Z,101080.72
2023-02-28T09:12:25.921Z,101084.19
2023-02-28T09:14:53.354Z,101085.53
2023-02-28T09:17:20.938Z,101082.94
2023-02-28T09:19:49.392Z,101082.81
2023-02-28T09:22:16.112Z,101075.69
2023-02-28T09:24:42.976Z,101080.63
2023-02-28T09:27:09.919Z,101082.72
2023-02-28T09:29:36.792Z,101080.19
2023-02-28T09:32:03.924Z,101078.34
2023-02-28T09:34:33.417Z,101081.19
2023-02-28T09:37:00.059Z,101084.50
2023-02-28T09:39:27.837Z,101080.87
2023-02-28T09:41:56.655Z,101079.56
2023-02-28T09:45:04.219Z,101090.87
2023-02-28T09:48:07.991Z,101093.94
2023-02-28T09:50:34.494Z,101083.03
2023-02-28T09:53:06.635Z,101087.06
2023-02-28T09:55:47.304Z,101081.59
2023-02-28T09:58:25.990Z,101087.19
2023-02-28T10:01:25.977Z,101082.78
2023-02-28T10:04:32.690Z,101076.50
2023-02-28T10:07:02.535Z,101076.41
2023-02-28T10:09:33.035Z,101073.53
2023-02-28T10:12:07.944Z,101064.91
2023-02-28T10:14:36.481Z,101072.09
2023-02-28T10:17:14.483Z,101072.25
2023-02-28T10:19:45.406Z,101061.84
2023-02-28T10:22:20.607Z,101059.03
2023-02-28T10:24:51.761Z,101061.59
2023-02-28T10:27:20.082Z,101062.81
2023-02-28T10:29:55.403Z,101063.28
2023-02-28T10:32:26.267Z,101073.87
2023-02-28T10:35:07.518Z,101071.78
2023-02-28T10:37:39.171Z,101057.47
2023-02-28T10:40:33.307Z,101056.06
2023-02-28T10:43:06.462Z,101056.94
2023-02-28T10:45:39.537Z,101054.03
2023-02-28T10:48:26.006Z,101045.75
2023-02-28T10:50:55.797Z,101041.44
2023-02-28T10:53:28.442Z,101046.00
2023-02-28T10:56:02.425Z,101042.72
2023-02-28T10:58:49.786Z,101044.53
2023-02-28T11:01:18.327Z,101042.41
2023-02-28T11:03:45.147Z,101038.41
2023-02-28T11:06:22.937Z,101035.97
2023-02-28T11:09:02.014Z,101043.75
2023-02-28T11:11:42.957Z,101035.69
2023-02-28T11:14:22.029Z,101031.31
2023-02-28T11:16:51.065Z,101031.44
2023-02-28T11:19:28.204Z,101038.41
2023-02-28T11:22:03.816Z,101034.78
2023-02-28T11:24:38.249Z,101028.22
2023-02-28T11:27:04.848Z,101030.59
2023-02-28T11:29:34.107Z,101032.09
2023-02-28T11:32:22.371Z,101035.59
2023-02-28T11:35:01.832Z,101030.25
2023-02-28T11:37:29.809Z,101035.19
2023-02-28T11:39:57.107Z,101023.87
2023-02-28T11:42:58.531Z,101028.22
2023-02-28T11:46:18.637Z,101029.69
2023-02-28T11:48:58.675Z,101015.66
2023-02-28T11:51:33.252Z,101023.13
2023-02-28T11:54:00.159Z,101013.63
2023-02-28T11:56:44.867Z,101014.38
2023-02-28T11:59:11.385Z,101009.94
2023-02-28T12:01:44.829Z,101011.78
2023-02-28T12:08:41.594Z,101004.28
2023-02-28T12:11:46.727Z,100995.97
2023-02-28T12:14:18.756Z,100991.53
2023-02-28T12:16:46.786Z,100993.84
2023-02-28T12:19:21.763Z,100990.47
2023-02-28T12:22:00.587Z,100984.59
2023-02-28T12:24:43.704Z,100979.72
2023-02-28T12:27:14.603Z,100975.56
2023-02-28T12:29:51.469Z,100975.84
2023-02-28T12:32:31.931Z,100971.69
2023-02-28T12:35:10.540Z,100954.53
2023-02-28T12:37:50.464Z,100968.00
2023-02-28T12:40:22.106Z,100969.03
2023-02-28T12:42:58.417Z,100961.91
2023-02-28T12:45:28.671Z,100963.66
2023-02-28T12:48:05.790Z,100965.91
2023-02-28T12:50:50.290Z,100968.00
2023-02-28T12:53:39.446Z,100963.78
2023-02-28T12:56:20.058Z,100956.94
2023-02-28T12:58:48.975Z,100954.53
2023-02-28T13:01:48.636Z,100956.41
2023-02-28T13:04:43.361Z,100956.88
2023-02-28T13:07:38.075Z,100956.31
2023-02-28T13:10:08.543Z,100946.63
2023-02-28T13:12:36.518Z,100953.41
2023-02-28T13:15:29.579Z,100945.06
2023-02-28T13:17:57.418Z,100944.31
2023-02-28T13:20:30.825Z,100942.13
2023-02-28T13:22:58.805Z,100940.91
2023-02-28T13:25:34.835Z,100936.56
2023-02-28T13:28:11.759Z,100938.75
2023-02-28T13:30:56.962Z,100938.06
2023-02-28T13:33:26.263Z,100936.16
2023-02-28T13:36:15.302Z,100934.59
2023-02-28T13:38:43.940Z,100934.12
2023-02-28T13:41:30.075Z,100926.69
2023-02-28T13:44:14.654Z,100928.84
2023-02-28T13:46:50.506Z,100920.91
2023-02-28T13:49:35.417Z,100911.03
2023-02-28T13:52:21.974Z,100925.56
2023-02-28T13:55:12.775Z,100909.94
2023-02-28T13:57:51.789Z,100917.72
2023-02-28T14:00:24.330Z,100915.44
2023-02-28T14:03:07.734Z,100911.91
2023-02-28T14:05:36.320Z,100903.84
2023-02-28T14:08:19.556Z,100910.00
2023-02-28T14:10:49.181Z,100911.78
2023-02-28T14:13:47.979Z,100911.44
2023-02-28T14:16:21.338Z,100910.78
2023-02-28T14:18:59.575Z,100921.84
2023-02-28T14:21:35.355Z,100898.50
2023-02-28T14:24:33.198Z,100905.75
2023-02-28T14:27:18.032Z,100898.53
2023-02-28T14:30:06.733Z,100899.09
2023-02-28T14:33:00.905Z,100898.56
2023-02-28T14:35:52.206Z,100896.75
2023-02-28T14:38:30.193Z,100894.75
2023-02-28T14:40:59.464Z,100894.22
2023-02-28T14:43:28.701Z,100895.84
2023-02-28T14:45:58.449Z,100893.41
2023-02-28T14:48:27.148Z,100894.44
2023-02-28T14:50:59.637Z,100887.06
2023-02-28T14:53:52.480Z,100894.59
2023-02-28T14:56:24.189Z,100897.97
2023-02-28T14:58:56.310Z,100900.88
2023-02-28T15:01:24.458Z,100892.16
2023-02-28T15:04:03.704Z,100903.34
2023-02-28T15:06:31.549Z,100904.84
2023-02-28T15:09:15.069Z,100901.16
2023-02-28T15:11:42.760Z,100909.38
2023-02-28T15:14:18.024Z,100908.00
2023-02-28T15:16:47.176Z,100910.81
2023-02-28T15:19:26.004Z,100905.03
2023-02-28T15:22:01.052Z,100901.13
2023-02-28T15:28:30.845Z,100898.69
2023-02-28T15:31:03.399Z,100899.84
2023-02-28T15:33:32.351Z,100908.34
2023-02-28T15:36:16.952Z,100891.13
2023-02-28T15:38:44.843Z,100894.63
2023-02-28T15:41:29.793Z,100900.00
2023-02-28T15:44:27.945Z,100900.25
2023-02-28T15:46:56.178Z,100901.13
2023-02-28T15:49:24.947Z,100900.69
2023-02-28T15:52:14.642Z,100894.50
2023-02-28T15:56:07.480Z,100898.34
2023-02-28T15:58:43.636Z,100901.03
2023-02-28T16:30:37.592Z,100923.47
2023-02-28T16:33:04.174Z,100925.81
2023-02-28T16:35:30.836Z,100913.09
2023-02-28T16:37:57.564Z,100915.94
2023-02-28T17:18:22.214Z,100951.22
2023-02-28T17:24:30.329Z,100948.03
2023-02-28T17:53:59.533Z,100959.03
2023-02-28T18:23:58.569Z,100960.19
2023-02-28T18:48:08.527Z,100977.19
2023-02-28T20:17:30.821Z,100971.69
2023-02-28T20:19:57.381Z,100976.34
2023-02-28T20:22:23.959Z,100964.75
2023-02-28T20:24:50.540Z,100971.66
2023-02-28T20:46:18.998Z,100953.81
2023-02-28T21:10:08.170Z,100958.44
2023-02-28T21:24:48.401Z,100963.88
2023-02-28T21:37:05.095Z,100961.38
